sensor_id;sensor_type;location;lat;lon;timestamp;P1;durP1;ratioP1;P2;durP2;ratioP2
69629;SDS011;56857;52.212;5.496;2022-11-15T00:00:44;41.25;;;19.17;;
69629;SDS011;56857;52.212;5.496;2022-11-15T00:03:29;35.65;;;17.90;;
69629;SDS011;56857;52.212;5.496;2022-11-15T00:06:14;35.28;;;19.13;;
69629;SDS011;56857;52.212;5.496;2022-11-15T00:09:00;40.92;;;19.20;;
69629;SDS011;56857;52.212;5.496;2022-11-15T00:11:45;36.50;;;19.08;;
69629;SDS011;56857;52.212;5.496;2022-11-15T00:14:31;31.75;;;16.25;;
69629;SDS011;56857;52.212;5.496;2022-11-15T00:17:16;37.72;;;17.60;;
69629;SDS011;56857;52.212;5.496;2022-11-15T00:20:01;37.00;;;18.90;;
69629;SDS011;56857;52.212;5.496;2022-11-15T00:22:47;38.15;;;17.80;;
69629;SDS011;56857;52.212;5.496;2022-11-15T00:25:33;40.13;;;19.35;;
69629;SDS011;56857;52.212;5.496;2022-11-15T00:28:18;38.88;;;17.20;;
69629;SDS011;56857;52.212;5.496;2022-11-15T00:31:04;39.13;;;17.77;;
69629;SDS011;56857;52.212;5.496;2022-11-15T00:33:52;40.10;;;18.02;;
69629;SDS011;56857;52.212;5.496;2022-11-15T00:36:37;36.88;;;17.40;;
69629;SDS011;56857;52.212;5.496;2022-11-15T00:39:23;40.55;;;18.55;;
69629;SDS011;56857;52.212;5.496;2022-11-15T00:42:08;40.50;;;18.65;;
69629;SDS011;56857;52.212;5.496;2022-11-15T00:44:53;40.13;;;18.80;;
69629;SDS011;56857;52.212;5.496;2022-11-15T00:47:39;42.10;;;17.55;;
69629;SDS011;56857;52.212;5.496;2022-11-15T00:50:24;40.80;;;19.70;;
69629;SDS011;56857;52.212;5.496;2022-11-15T00:53:09;38.17;;;18.88;;
69629;SDS011;56857;52.212;5.496;2022-11-15T00:55:55;46.42;;;20.90;;
69629;SDS011;56857;52.212;5.496;2022-11-15T00:58:40;42.03;;;18.35;;
69629;SDS011;56857;52.212;5.496;2022-11-15T01:01:26;40.67;;;19.70;;
69629;SDS011;56857;52.212;5.496;2022-11-15T01:04:11;48.47;;;21.48;;
69629;SDS011;56857;52.212;5.496;2022-11-15T01:06:56;51.78;;;21.00;;
69629;SDS011;56857;52.212;5.496;2022-11-15T01:09:41;51.55;;;21.15;;
69629;SDS011;56857;52.212;5.496;2022-11-15T01:12:27;48.40;;;22.00;;
69629;SDS011;56857;52.212;5.496;2022-11-15T01:15:12;61.17;;;21.73;;
69629;SDS011;56857;52.212;5.496;2022-11-15T01:17:58;53.58;;;21.00;;
69629;SDS011;56857;52.212;5.496;2022-11-15T01:20:43;47.00;;;17.83;;
69629;SDS011;56857;52.212;5.496;2022-11-15T01:23:28;50.17;;;21.85;;
69629;SDS011;56857;52.212;5.496;2022-11-15T01:26:14;40.20;;;19.25;;
69629;SDS011;56857;52.212;5.496;2022-11-15T01:29:00;49.60;;;20.63;;
69629;SDS011;56857;52.212;5.496;2022-11-15T01:31:45;49.60;;;20.88;;
69629;SDS011;56857;52.212;5.496;2022-11-15T01:34:30;43.25;;;17.38;;
69629;SDS011;56857;52.212;5.496;2022-11-15T01:37:16;47.95;;;19.55;;
69629;SDS011;56857;52.212;5.496;2022-11-15T01:40:01;45.00;;;20.27;;
69629;SDS011;56857;52.212;5.496;2022-11-15T01:42:47;44.17;;;20.77;;
69629;SDS011;56857;52.212;5.496;2022-11-15T01:45:32;47.83;;;20.13;;
69629;SDS011;56857;52.212;5.496;2022-11-15T01:48:17;43.28;;;19.80;;
69629;SDS011;56857;52.212;5.496;2022-11-15T01:51:04;48.10;;;19.95;;
69629;SDS011;56857;52.212;5.496;2022-11-15T01:53:54;44.05;;;20.20;;
69629;SDS011;56857;52.212;5.496;2022-11-15T01:56:54;44.33;;;20.00;;
69629;SDS011;56857;52.212;5.496;2022-11-15T01:59:46;40.80;;;19.00;;
69629;SDS011;56857;52.212;5.496;2022-11-15T02:02:32;42.30;;;18.95;;
69629;SDS011;56857;52.212;5.496;2022-11-15T02:05:19;39.17;;;21.00;;
69629;SDS011;56857;52.212;5.496;2022-11-15T02:08:04;47.13;;;21.52;;
69629;SDS011;56857;52.212;5.496;2022-11-15T02:10:51;44.10;;;18.63;;
69629;SDS011;56857;52.212;5.496;2022-11-15T02:13:36;44.00;;;19.85;;
69629;SDS011;56857;52.212;5.496;2022-11-15T02:16:29;45.75;;;19.30;;
69629;SDS011;56857;52.212;5.496;2022-11-15T02:29:11;41.80;;;18.15;;
69629;SDS011;56857;52.212;5.496;2022-11-15T02:41:03;39.63;;;18.00;;
69629;SDS011;56857;52.212;5.496;2022-11-15T02:46:55;40.17;;;19.70;;
69629;SDS011;56857;52.212;5.496;2022-11-15T02:49:46;42.22;;;19.67;;
69629;SDS011;56857;52.212;5.496;2022-11-15T02:52:33;41.13;;;19.98;;
69629;SDS011;56857;52.212;5.496;2022-11-15T02:55:29;41.42;;;19.15;;
69629;SDS011;56857;52.212;5.496;2022-11-15T03:10:54;38.00;;;18.92;;
69629;SDS011;56857;52.212;5.496;2022-11-15T03:13:58;38.83;;;19.05;;
69629;SDS011;56857;52.212;5.496;2022-11-15T03:20:34;38.42;;;19.23;;
69629;SDS011;56857;52.212;5.496;2022-11-15T03:23:21;42.47;;;20.08;;
69629;SDS011;56857;52.212;5.496;2022-11-15T03:26:16;37.30;;;20.10;;
69629;SDS011;56857;52.212;5.496;2022-11-15T03:29:15;35.38;;;20.38;;
69629;SDS011;56857;52.212;5.496;2022-11-15T03:32:06;39.30;;;18.55;;
69629;SDS011;56857;52.212;5.496;2022-11-15T03:35:03;42.60;;;20.25;;
69629;SDS011;56857;52.212;5.496;2022-11-15T03:38:26;38.28;;;20.17;;
69629;SDS011;56857;52.212;5.496;2022-11-15T03:47:51;39.90;;;19.35;;
69629;SDS011;56857;52.212;5.496;2022-11-15T03:50:42;34.03;;;19.40;;
69629;SDS011;56857;52.212;5.496;2022-11-15T03:53:31;37.25;;;20.08;;
69629;SDS011;56857;52.212;5.496;2022-11-15T03:56:20;37.38;;;21.35;;
69629;SDS011;56857;52.212;5.496;2022-11-15T03:59:05;35.85;;;19.40;;
69629;SDS011;56857;52.212;5.496;2022-11-15T04:01:54;37.60;;;20.20;;
69629;SDS011;56857;52.212;5.496;2022-11-15T04:04:39;38.03;;;21.27;;
69629;SDS011;56857;52.212;5.496;2022-11-15T04:07:25;33.90;;;20.02;;
69629;SDS011;56857;52.212;5.496;2022-11-15T04:10:10;34.88;;;19.52;;
69629;SDS011;56857;52.212;5.496;2022-11-15T04:12:56;39.28;;;20.88;;
69629;SDS011;56857;52.212;5.496;2022-11-15T04:15:42;40.03;;;21.17;;
69629;SDS011;56857;52.212;5.496;2022-11-15T04:18:27;37.92;;;18.70;;
69629;SDS011;56857;52.212;5.496;2022-11-15T04:21:12;37.13;;;19.63;;
69629;SDS011;56857;52.212;5.496;2022-11-15T04:23:58;39.30;;;20.92;;
69629;SDS011;56857;52.212;5.496;2022-11-15T04:26:43;33.97;;;17.80;;
69629;SDS011;56857;52.212;5.496;2022-11-15T04:29:30;37.90;;;20.08;;
69629;SDS011;56857;52.212;5.496;2022-11-15T04:32:15;33.92;;;18.13;;
69629;SDS011;56857;52.212;5.496;2022-11-15T04:35:00;34.53;;;19.08;;
69629;SDS011;56857;52.212;5.496;2022-11-15T04:37:45;34.28;;;19.70;;
69629;SDS011;56857;52.212;5.496;2022-11-15T04:40:34;35.75;;;18.92;;
69629;SDS011;56857;52.212;5.496;2022-11-15T04:43:20;34.35;;;19.38;;
69629;SDS011;56857;52.212;5.496;2022-11-15T04:46:06;37.78;;;19.65;;
69629;SDS011;56857;52.212;5.496;2022-11-15T04:48:52;34.53;;;18.90;;
69629;SDS011;56857;52.212;5.496;2022-11-15T04:51:38;36.42;;;20.60;;
69629;SDS011;56857;52.212;5.496;2022-11-15T04:54:23;32.50;;;17.85;;
69629;SDS011;56857;52.212;5.496;2022-11-15T04:57:09;32.80;;;17.45;;
69629;SDS011;56857;52.212;5.496;2022-11-15T04:59:54;31.40;;;18.70;;
69629;SDS011;56857;52.212;5.496;2022-11-15T05:02:39;30.52;;;18.17;;
69629;SDS011;56857;52.212;5.496;2022-11-15T05:05:24;34.33;;;19.92;;
69629;SDS011;56857;52.212;5.496;2022-11-15T05:08:10;34.97;;;18.30;;
69629;SDS011;56857;52.212;5.496;2022-11-15T05:10:55;31.42;;;17.08;;
69629;SDS011;56857;52.212;5.496;2022-11-15T05:13:41;31.52;;;17.88;;
69629;SDS011;56857;52.212;5.496;2022-11-15T05:16:26;33.10;;;18.17;;
69629;SDS011;56857;52.212;5.496;2022-11-15T05:19:11;32.83;;;18.65;;
69629;SDS011;56857;52.212;5.496;2022-11-15T05:21:57;29.75;;;17.02;;
69629;SDS011;56857;52.212;5.496;2022-11-15T05:24:42;28.00;;;16.48;;
69629;SDS011;56857;52.212;5.496;2022-11-15T05:27:27;31.20;;;17.08;;
69629;SDS011;56857;52.212;5.496;2022-11-15T05:30:13;33.85;;;17.25;;
69629;SDS011;56857;52.212;5.496;2022-11-15T05:32:59;32.78;;;18.67;;
69629;SDS011;56857;52.212;5.496;2022-11-15T05:35:52;31.15;;;18.08;;
69629;SDS011;56857;52.212;5.496;2022-11-15T05:38:46;31.02;;;17.73;;
69629;SDS011;56857;52.212;5.496;2022-11-15T05:41:37;28.13;;;17.30;;
69629;SDS011;56857;52.212;5.496;2022-11-15T05:44:27;31.08;;;17.50;;
69629;SDS011;56857;52.212;5.496;2022-11-15T05:47:14;29.42;;;15.15;;
69629;SDS011;56857;52.212;5.496;2022-11-15T05:50:06;26.77;;;17.42;;
69629;SDS011;56857;52.212;5.496;2022-11-15T05:52:55;32.28;;;19.33;;
69629;SDS011;56857;52.212;5.496;2022-11-15T05:55:41;29.80;;;18.30;;
69629;SDS011;56857;52.212;5.496;2022-11-15T05:58:26;30.40;;;20.08;;
69629;SDS011;56857;52.212;5.496;2022-11-15T06:01:12;29.88;;;17.63;;
69629;SDS011;56857;52.212;5.496;2022-11-15T06:03:57;33.85;;;18.92;;
69629;SDS011;56857;52.212;5.496;2022-11-15T06:06:43;27.30;;;16.15;;
69629;SDS011;56857;52.212;5.496;2022-11-15T06:09:28;33.53;;;18.60;;
69629;SDS011;56857;52.212;5.496;2022-11-15T06:12:14;31.85;;;18.45;;
69629;SDS011;56857;52.212;5.496;2022-11-15T06:14:59;30.27;;;18.00;;
69629;SDS011;56857;52.212;5.496;2022-11-15T06:17:44;29.85;;;17.00;;
69629;SDS011;56857;52.212;5.496;2022-11-15T06:20:30;28.63;;;16.23;;
69629;SDS011;56857;52.212;5.496;2022-11-15T06:23:16;33.90;;;18.33;;
69629;SDS011;56857;52.212;5.496;2022-11-15T06:26:02;28.27;;;17.83;;
69629;SDS011;56857;52.212;5.496;2022-11-15T06:28:48;30.25;;;18.10;;
69629;SDS011;56857;52.212;5.496;2022-11-15T06:31:34;30.77;;;17.15;;
69629;SDS011;56857;52.212;5.496;2022-11-15T06:34:19;27.70;;;18.05;;
69629;SDS011;56857;52.212;5.496;2022-11-15T06:37:04;30.40;;;18.38;;
69629;SDS011;56857;52.212;5.496;2022-11-15T06:39:50;32.17;;;18.33;;
69629;SDS011;56857;52.212;5.496;2022-11-15T06:42:35;32.47;;;18.63;;
69629;SDS011;56857;52.212;5.496;2022-11-15T06:45:21;33.90;;;18.45;;
69629;SDS011;56857;52.212;5.496;2022-11-15T06:48:06;31.30;;;19.35;;
69629;SDS011;56857;52.212;5.496;2022-11-15T06:50:55;33.83;;;19.67;;
69629;SDS011;56857;52.212;5.496;2022-11-15T06:53:42;31.05;;;17.73;;
69629;SDS011;56857;52.212;5.496;2022-11-15T06:56:27;31.50;;;18.90;;
69629;SDS011;56857;52.212;5.496;2022-11-15T06:59:15;32.35;;;18.27;;
69629;SDS011;56857;52.212;5.496;2022-11-15T07:02:00;32.75;;;18.25;;
69629;SDS011;56857;52.212;5.496;2022-11-15T07:04:46;33.35;;;18.00;;
69629;SDS011;56857;52.212;5.496;2022-11-15T07:07:31;28.25;;;17.40;;
69629;SDS011;56857;52.212;5.496;2022-11-15T07:10:16;31.88;;;17.25;;
69629;SDS011;56857;52.212;5.496;2022-11-15T07:13:02;30.20;;;16.40;;
69629;SDS011;56857;52.212;5.496;2022-11-15T07:15:47;33.33;;;17.35;;
69629;SDS011;56857;52.212;5.496;2022-11-15T07:18:36;31.65;;;18.08;;
69629;SDS011;56857;52.212;5.496;2022-11-15T07:21:23;29.95;;;17.95;;
69629;SDS011;56857;52.212;5.496;2022-11-15T07:24:08;31.77;;;17.95;;
69629;SDS011;56857;52.212;5.496;2022-11-15T07:26:54;27.98;;;17.38;;
69629;SDS011;56857;52.212;5.496;2022-11-15T07:29:39;26.55;;;16.20;;
69629;SDS011;56857;52.212;5.496;2022-11-15T07:32:24;27.58;;;17.52;;
69629;SDS011;56857;52.212;5.496;2022-11-15T07:35:10;29.48;;;16.90;;
69629;SDS011;56857;52.212;5.496;2022-11-15T07:37:59;32.05;;;15.52;;
69629;SDS011;56857;52.212;5.496;2022-11-15T07:43:34;31.33;;;15.85;;
69629;SDS011;56857;52.212;5.496;2022-11-15T07:46:20;30.65;;;16.00;;
69629;SDS011;56857;52.212;5.496;2022-11-15T07:49:06;29.00;;;16.05;;
69629;SDS011;56857;52.212;5.496;2022-11-15T07:51:51;30.52;;;15.85;;
69629;SDS011;56857;52.212;5.496;2022-11-15T07:54:36;28.35;;;15.55;;
69629;SDS011;56857;52.212;5.496;2022-11-15T07:57:21;30.30;;;16.10;;
69629;SDS011;56857;52.212;5.496;2022-11-15T08:00:07;31.85;;;17.08;;
69629;SDS011;56857;52.212;5.496;2022-11-15T08:03:00;30.15;;;16.23;;
69629;SDS011;56857;52.212;5.496;2022-11-15T08:05:49;29.20;;;17.00;;
69629;SDS011;56857;52.212;5.496;2022-11-15T08:08:35;25.10;;;15.80;;
69629;SDS011;56857;52.212;5.496;2022-11-15T08:11:21;29.55;;;15.40;;
69629;SDS011;56857;52.212;5.496;2022-11-15T08:14:06;25.40;;;14.30;;
69629;SDS011;56857;52.212;5.496;2022-11-15T08:16:52;30.40;;;16.45;;
69629;SDS011;56857;52.212;5.496;2022-11-15T08:19:39;26.33;;;15.75;;
69629;SDS011;56857;52.212;5.496;2022-11-15T08:22:25;30.33;;;17.80;;
69629;SDS011;56857;52.212;5.496;2022-11-15T08:25:10;25.80;;;16.55;;
69629;SDS011;56857;52.212;5.496;2022-11-15T08:27:56;27.50;;;14.88;;
69629;SDS011;56857;52.212;5.496;2022-11-15T08:30:43;27.13;;;15.82;;
69629;SDS011;56857;52.212;5.496;2022-11-15T08:33:29;26.48;;;15.63;;
69629;SDS011;56857;52.212;5.496;2022-11-15T08:36:15;28.10;;;15.35;;
69629;SDS011;56857;52.212;5.496;2022-11-15T08:39:01;26.63;;;16.23;;
69629;SDS011;56857;52.212;5.496;2022-11-15T08:41:47;27.50;;;16.20;;
69629;SDS011;56857;52.212;5.496;2022-11-15T08:44:32;30.02;;;15.68;;
69629;SDS011;56857;52.212;5.496;2022-11-15T08:47:18;26.55;;;15.48;;
69629;SDS011;56857;52.212;5.496;2022-11-15T08:50:03;26.10;;;15.57;;
69629;SDS011;56857;52.212;5.496;2022-11-15T08:52:48;27.00;;;15.75;;
69629;SDS011;56857;52.212;5.496;2022-11-15T08:55:37;26.60;;;14.05;;
69629;SDS011;56857;52.212;5.496;2022-11-15T08:58:24;26.13;;;14.80;;
69629;SDS011;56857;52.212;5.496;2022-11-15T09:01:16;22.27;;;12.93;;
69629;SDS011;56857;52.212;5.496;2022-11-15T09:04:03;26.25;;;14.05;;
69629;SDS011;56857;52.212;5.496;2022-11-15T09:06:49;23.45;;;12.77;;
69629;SDS011;56857;52.212;5.496;2022-11-15T09:09:34;20.48;;;13.00;;
69629;SDS011;56857;52.212;5.496;2022-11-15T09:12:20;25.13;;;13.32;;
69629;SDS011;56857;52.212;5.496;2022-11-15T09:15:06;22.73;;;12.35;;
69629;SDS011;56857;52.212;5.496;2022-11-15T09:17:52;22.25;;;11.73;;
69629;SDS011;56857;52.212;5.496;2022-11-15T09:20:37;20.27;;;11.80;;
69629;SDS011;56857;52.212;5.496;2022-11-15T09:23:23;22.00;;;11.63;;
69629;SDS011;56857;52.212;5.496;2022-11-15T09:26:08;23.42;;;12.68;;
69629;SDS011;56857;52.212;5.496;2022-11-15T09:28:54;19.27;;;12.23;;
69629;SDS011;56857;52.212;5.496;2022-11-15T09:31:39;19.75;;;10.95;;
69629;SDS011;56857;52.212;5.496;2022-11-15T09:34:24;20.40;;;11.95;;
69629;SDS011;56857;52.212;5.496;2022-11-15T09:37:09;18.20;;;10.63;;
69629;SDS011;56857;52.212;5.496;2022-11-15T09:39:55;24.55;;;11.32;;
69629;SDS011;56857;52.212;5.496;2022-11-15T09:42:58;17.27;;;10.35;;
69629;SDS011;56857;52.212;5.496;2022-11-15T09:49:10;19.13;;;10.10;;
69629;SDS011;56857;52.212;5.496;2022-11-15T09:51:59;18.40;;;9.77;;
69629;SDS011;56857;52.212;5.496;2022-11-15T09:54:47;18.42;;;11.02;;
69629;SDS011;56857;52.212;5.496;2022-11-15T10:00:28;17.80;;;10.00;;
69629;SDS011;56857;52.212;5.496;2022-11-15T10:03:23;16.30;;;9.50;;
69629;SDS011;56857;52.212;5.496;2022-11-15T10:06:23;17.08;;;8.80;;
69629;SDS011;56857;52.212;5.496;2022-11-15T10:09:15;16.33;;;10.20;;
69629;SDS011;56857;52.212;5.496;2022-11-15T10:12:04;17.70;;;10.13;;
69629;SDS011;56857;52.212;5.496;2022-11-15T10:14:50;17.23;;;10.00;;
69629;SDS011;56857;52.212;5.496;2022-11-15T10:18:03;17.08;;;11.38;;
69629;SDS011;56857;52.212;5.496;2022-11-15T10:20:55;16.65;;;8.63;;
69629;SDS011;56857;52.212;5.496;2022-11-15T10:23:44;14.73;;;9.60;;
69629;SDS011;56857;52.212;5.496;2022-11-15T10:26:29;17.30;;;10.30;;
69629;SDS011;56857;52.212;5.496;2022-11-15T10:29:21;18.75;;;9.68;;
69629;SDS011;56857;52.212;5.496;2022-11-15T10:32:09;14.10;;;8.82;;
69629;SDS011;56857;52.212;5.496;2022-11-15T10:34:59;14.13;;;8.05;;
69629;SDS011;56857;52.212;5.496;2022-11-15T10:37:44;12.07;;;6.95;;
69629;SDS011;56857;52.212;5.496;2022-11-15T10:40:30;11.85;;;7.70;;
69629;SDS011;56857;52.212;5.496;2022-11-15T10:43:16;9.90;;;5.95;;
69629;SDS011;56857;52.212;5.496;2022-11-15T10:46:16;10.23;;;5.93;;
69629;SDS011;56857;52.212;5.496;2022-11-15T10:49:15;11.02;;;5.95;;
69629;SDS011;56857;52.212;5.496;2022-11-15T10:55:05;10.40;;;5.72;;
69629;SDS011;56857;52.212;5.496;2022-11-15T10:58:01;9.50;;;4.22;;
69629;SDS011;56857;52.212;5.496;2022-11-15T11:01:14;8.93;;;4.53;;
69629;SDS011;56857;52.212;5.496;2022-11-15T11:06:54;6.95;;;4.25;;
69629;SDS011;56857;52.212;5.496;2022-11-15T11:09:43;8.18;;;4.13;;
69629;SDS011;56857;52.212;5.496;2022-11-15T11:12:30;9.32;;;4.25;;
69629;SDS011;56857;52.212;5.496;2022-11-15T11:15:18;7.45;;;3.20;;
69629;SDS011;56857;52.212;5.496;2022-11-15T11:18:06;8.02;;;3.97;;
69629;SDS011;56857;52.212;5.496;2022-11-15T11:20:58;9.93;;;4.40;;
69629;SDS011;56857;52.212;5.496;2022-11-15T11:23:53;8.98;;;3.40;;
69629;SDS011;56857;52.212;5.496;2022-11-15T11:26:54;8.27;;;3.95;;
69629;SDS011;56857;52.212;5.496;2022-11-15T11:33:19;7.20;;;3.75;;
69629;SDS011;56857;52.212;5.496;2022-11-15T11:36:14;8.45;;;3.75;;
69629;SDS011;56857;52.212;5.496;2022-11-15T11:45:36;11.43;;;3.78;;
69629;SDS011;56857;52.212;5.496;2022-11-15T11:48:46;9.85;;;3.47;;
69629;SDS011;56857;52.212;5.496;2022-11-15T11:51:39;7.10;;;4.50;;
69629;SDS011;56857;52.212;5.496;2022-11-15T11:54:38;8.82;;;5.15;;
69629;SDS011;56857;52.212;5.496;2022-11-15T11:57:49;7.85;;;3.95;;
69629;SDS011;56857;52.212;5.496;2022-11-15T12:00:47;6.63;;;3.67;;
69629;SDS011;56857;52.212;5.496;2022-11-15T12:18:44;6.93;;;3.20;;
69629;SDS011;56857;52.212;5.496;2022-11-15T12:25:05;8.98;;;3.90;;
69629;SDS011;56857;52.212;5.496;2022-11-15T12:31:01;8.45;;;3.20;;
69629;SDS011;56857;52.212;5.496;2022-11-15T12:33:55;6.28;;;2.95;;
69629;SDS011;56857;52.212;5.496;2022-11-15T12:36:43;7.97;;;3.20;;
69629;SDS011;56857;52.212;5.496;2022-11-15T12:43:03;7.35;;;2.90;;
69629;SDS011;56857;52.212;5.496;2022-11-15T12:46:01;6.47;;;2.78;;
69629;SDS011;56857;52.212;5.496;2022-11-15T12:48:49;8.38;;;3.25;;
69629;SDS011;56857;52.212;5.496;2022-11-15T13:09:49;7.38;;;2.63;;
69629;SDS011;56857;52.212;5.496;2022-11-15T13:15:30;10.65;;;3.00;;
69629;SDS011;56857;52.212;5.496;2022-11-15T13:18:38;5.88;;;2.88;;
69629;SDS011;56857;52.212;5.496;2022-11-15T13:24:12;8.43;;;2.40;;
69629;SDS011;56857;52.212;5.496;2022-11-15T13:27:00;7.10;;;3.35;;
69629;SDS011;56857;52.212;5.496;2022-11-15T13:29:45;7.13;;;3.00;;
69629;SDS011;56857;52.212;5.496;2022-11-15T13:32:31;9.85;;;3.45;;
69629;SDS011;56857;52.212;5.496;2022-11-15T13:35:26;8.95;;;3.30;;
69629;SDS011;56857;52.212;5.496;2022-11-15T13:38:25;7.10;;;2.72;;
69629;SDS011;56857;52.212;5.496;2022-11-15T13:41:27;7.38;;;2.65;;
69629;SDS011;56857;52.212;5.496;2022-11-15T13:44:21;6.53;;;2.60;;
69629;SDS011;56857;52.212;5.496;2022-11-15T13:47:15;7.05;;;2.75;;
69629;SDS011;56857;52.212;5.496;2022-11-15T13:50:04;6.85;;;2.63;;
69629;SDS011;56857;52.212;5.496;2022-11-15T13:52:49;7.63;;;2.47;;
69629;SDS011;56857;52.212;5.496;2022-11-15T13:55:35;6.85;;;2.20;;
69629;SDS011;56857;52.212;5.496;2022-11-15T13:58:21;6.18;;;2.17;;
69629;SDS011;56857;52.212;5.496;2022-11-15T14:01:06;7.18;;;2.42;;
69629;SDS011;56857;52.212;5.496;2022-11-15T14:04:01;7.00;;;2.10;;
69629;SDS011;56857;52.212;5.496;2022-11-15T14:06:53;6.43;;;2.33;;
69629;SDS011;56857;52.212;5.496;2022-11-15T14:09:44;5.78;;;2.72;;
69629;SDS011;56857;52.212;5.496;2022-11-15T14:12:34;6.25;;;2.42;;
69629;SDS011;56857;52.212;5.496;2022-11-15T14:15:42;7.78;;;2.50;;
69629;SDS011;56857;52.212;5.496;2022-11-15T14:18:46;7.65;;;2.55;;
69629;SDS011;56857;52.212;5.496;2022-11-15T14:21:32;7.78;;;2.38;;
69629;SDS011;56857;52.212;5.496;2022-11-15T14:24:18;5.50;;;1.85;;
69629;SDS011;56857;52.212;5.496;2022-11-15T14:27:20;7.50;;;2.40;;
69629;SDS011;56857;52.212;5.496;2022-11-15T14:30:12;6.68;;;2.40;;
69629;SDS011;56857;52.212;5.496;2022-11-15T14:33:01;5.38;;;2.50;;
69629;SDS011;56857;52.212;5.496;2022-11-15T14:36:05;9.63;;;2.58;;
69629;SDS011;56857;52.212;5.496;2022-11-15T14:39:01;7.57;;;2.10;;
69629;SDS011;56857;52.212;5.496;2022-11-15T14:41:46;6.32;;;2.72;;
69629;SDS011;56857;52.212;5.496;2022-11-15T14:44:31;5.53;;;1.90;;
69629;SDS011;56857;52.212;5.496;2022-11-15T14:47:17;6.97;;;2.17;;
69629;SDS011;56857;52.212;5.496;2022-11-15T14:50:03;6.85;;;2.47;;
69629;SDS011;56857;52.212;5.496;2022-11-15T14:52:48;10.07;;;2.58;;
69629;SDS011;56857;52.212;5.496;2022-11-15T14:55:34;7.28;;;1.90;;
69629;SDS011;56857;52.212;5.496;2022-11-15T14:58:20;6.32;;;1.90;;
69629;SDS011;56857;52.212;5.496;2022-11-15T15:01:23;6.47;;;1.67;;
69629;SDS011;56857;52.212;5.496;2022-11-15T15:04:10;6.82;;;2.35;;
69629;SDS011;56857;52.212;5.496;2022-11-15T15:06:55;5.88;;;1.80;;
69629;SDS011;56857;52.212;5.496;2022-11-15T15:09:41;4.35;;;2.00;;
69629;SDS011;56857;52.212;5.496;2022-11-15T15:12:27;5.07;;;1.95;;
69629;SDS011;56857;52.212;5.496;2022-11-15T15:15:16;7.43;;;2.47;;
69629;SDS011;56857;52.212;5.496;2022-11-15T15:18:06;8.68;;;2.30;;
69629;SDS011;56857;52.212;5.496;2022-11-15T15:20:58;5.90;;;2.30;;
69629;SDS011;56857;52.212;5.496;2022-11-15T15:23:44;6.93;;;1.63;;
69629;SDS011;56857;52.212;5.496;2022-11-15T15:26:29;4.22;;;1.83;;
69629;SDS011;56857;52.212;5.496;2022-11-15T15:29:15;6.88;;;2.80;;
69629;SDS011;56857;52.212;5.496;2022-11-15T15:32:00;8.35;;;2.63;;
69629;SDS011;56857;52.212;5.496;2022-11-15T15:34:45;5.30;;;2.30;;
69629;SDS011;56857;52.212;5.496;2022-11-15T15:37:31;5.35;;;2.40;;
69629;SDS011;56857;52.212;5.496;2022-11-15T15:40:18;6.03;;;2.50;;
69629;SDS011;56857;52.212;5.496;2022-11-15T15:43:05;8.27;;;2.80;;
69629;SDS011;56857;52.212;5.496;2022-11-15T15:45:51;9.02;;;2.58;;
69629;SDS011;56857;52.212;5.496;2022-11-15T15:48:36;7.32;;;2.20;;
69629;SDS011;56857;52.212;5.496;2022-11-15T15:51:21;7.13;;;2.63;;
69629;SDS011;56857;52.212;5.496;2022-11-15T15:54:07;6.28;;;2.00;;
69629;SDS011;56857;52.212;5.496;2022-11-15T15:56:53;7.78;;;2.35;;
69629;SDS011;56857;52.212;5.496;2022-11-15T15:59:38;7.53;;;1.52;;
69629;SDS011;56857;52.212;5.496;2022-11-15T16:02:24;4.57;;;2.22;;
69629;SDS011;56857;52.212;5.496;2022-11-15T16:05:10;6.72;;;2.15;;
69629;SDS011;56857;52.212;5.496;2022-11-15T16:08:41;8.60;;;2.40;;
69629;SDS011;56857;52.212;5.496;2022-11-15T16:11:08;6.25;;;2.38;;
69629;SDS011;56857;52.212;5.496;2022-11-15T16:13:54;6.32;;;2.30;;
69629;SDS011;56857;52.212;5.496;2022-11-15T16:16:39;4.18;;;2.22;;
69629;SDS011;56857;52.212;5.496;2022-11-15T16:19:24;5.63;;;2.20;;
69629;SDS011;56857;52.212;5.496;2022-11-15T16:22:10;8.15;;;2.85;;
69629;SDS011;56857;52.212;5.496;2022-11-15T16:24:56;6.15;;;2.53;;
69629;SDS011;56857;52.212;5.496;2022-11-15T16:27:41;5.07;;;1.88;;
69629;SDS011;56857;52.212;5.496;2022-11-15T16:30:27;6.05;;;2.53;;
69629;SDS011;56857;52.212;5.496;2022-11-15T16:33:12;7.82;;;2.47;;
69629;SDS011;56857;52.212;5.496;2022-11-15T16:35:57;7.60;;;3.17;;
69629;SDS011;56857;52.212;5.496;2022-11-15T16:38:42;6.22;;;2.22;;
69629;SDS011;56857;52.212;5.496;2022-11-15T16:41:28;5.43;;;2.50;;
69629;SDS011;56857;52.212;5.496;2022-11-15T16:44:13;7.05;;;2.50;;
69629;SDS011;56857;52.212;5.496;2022-11-15T16:46:59;8.00;;;2.60;;
69629;SDS011;56857;52.212;5.496;2022-11-15T16:49:44;6.63;;;2.95;;
69629;SDS011;56857;52.212;5.496;2022-11-15T16:52:30;6.63;;;2.35;;
69629;SDS011;56857;52.212;5.496;2022-11-15T16:55:15;6.97;;;2.60;;
69629;SDS011;56857;52.212;5.496;2022-11-15T16:58:00;8.70;;;2.30;;
69629;SDS011;56857;52.212;5.496;2022-11-15T17:00:49;5.90;;;2.47;;
69629;SDS011;56857;52.212;5.496;2022-11-15T17:03:35;8.02;;;2.35;;
69629;SDS011;56857;52.212;5.496;2022-11-15T17:06:21;5.57;;;2.45;;
69629;SDS011;56857;52.212;5.496;2022-11-15T17:09:14;8.32;;;2.38;;
69629;SDS011;56857;52.212;5.496;2022-11-15T17:12:02;5.53;;;2.50;;
69629;SDS011;56857;52.212;5.496;2022-11-15T17:14:47;6.88;;;2.72;;
69629;SDS011;56857;52.212;5.496;2022-11-15T17:17:32;5.95;;;2.45;;
69629;SDS011;56857;52.212;5.496;2022-11-15T17:20:18;7.53;;;2.92;;
69629;SDS011;56857;52.212;5.496;2022-11-15T17:23:05;8.65;;;2.95;;
69629;SDS011;56857;52.212;5.496;2022-11-15T17:25:57;5.28;;;2.50;;
69629;SDS011;56857;52.212;5.496;2022-11-15T17:28:43;5.32;;;2.50;;
69629;SDS011;56857;52.212;5.496;2022-11-15T17:31:28;11.90;;;4.03;;
69629;SDS011;56857;52.212;5.496;2022-11-15T17:34:15;10.73;;;3.08;;
69629;SDS011;56857;52.212;5.496;2022-11-15T17:37:01;7.95;;;3.42;;
69629;SDS011;56857;52.212;5.496;2022-11-15T17:39:46;6.57;;;3.20;;
69629;SDS011;56857;52.212;5.496;2022-11-15T17:42:31;6.80;;;3.45;;
69629;SDS011;56857;52.212;5.496;2022-11-15T17:45:16;8.10;;;3.42;;
69629;SDS011;56857;52.212;5.496;2022-11-15T17:48:03;8.60;;;3.67;;
69629;SDS011;56857;52.212;5.496;2022-11-15T17:50:53;11.07;;;3.78;;
69629;SDS011;56857;52.212;5.496;2022-11-15T17:53:46;9.43;;;3.38;;
69629;SDS011;56857;52.212;5.496;2022-11-15T17:56:32;8.25;;;3.63;;
69629;SDS011;56857;52.212;5.496;2022-11-15T17:59:18;7.50;;;3.38;;
69629;SDS011;56857;52.212;5.496;2022-11-15T18:02:03;8.88;;;3.53;;
69629;SDS011;56857;52.212;5.496;2022-11-15T18:04:49;8.50;;;3.95;;
69629;SDS011;56857;52.212;5.496;2022-11-15T18:07:34;9.38;;;3.92;;
69629;SDS011;56857;52.212;5.496;2022-11-15T18:10:19;8.55;;;4.10;;
69629;SDS011;56857;52.212;5.496;2022-11-15T18:13:04;6.50;;;2.83;;
69629;SDS011;56857;52.212;5.496;2022-11-15T18:15:53;9.25;;;3.90;;
69629;SDS011;56857;52.212;5.496;2022-11-15T18:18:39;8.73;;;4.35;;
69629;SDS011;56857;52.212;5.496;2022-11-15T18:21:26;7.25;;;3.08;;
69629;SDS011;56857;52.212;5.496;2022-11-15T18:24:13;9.80;;;4.72;;
69629;SDS011;56857;52.212;5.496;2022-11-15T18:26:59;9.30;;;4.63;;
69629;SDS011;56857;52.212;5.496;2022-11-15T18:29:46;9.23;;;4.35;;
69629;SDS011;56857;52.212;5.496;2022-11-15T18:32:31;9.32;;;3.58;;